sensor_id;sensor_type;location;lat;lon;timestamp;pressure;altitude;pressure_sealevel;temperature;humidity
13705;BME280;6924;52.122;9.952;2023-02-28T00:01:13;102089.47;;;0.20;86.27
13705;BME280;6924;52.122;9.952;2023-02-28T00:03:40;102086.88;;;0.19;86.51
13705;BME280;6924;52.122;9.952;2023-02-28T00:06:07;102089.84;;;0.17;86.36
13705;BME280;6924;52.122;9.952;2023-02-28T00:08:35;102083.03;;;0.13;85.94
13705;BME280;6924;52.122;9.952;2023-02-28T00:11:02;102079.78;;;0.10;86.29
13705;BME280;6924;52.122;9.952;2023-02-28T00:13:30;102088.97;;;0.04;86.55
13705;BME280;6924;52.122;9.952;2023-02-28T00:16:00;102085.97;;;0.05;86.29
13705;BME280;6924;52.122;9.952;2023-02-28T00:18:27;102081.25;;;0.06;85.87
13705;BME280;6924;52.122;9.952;2023-02-28T00:20:53;102090.69;;;0.05;85.66
13705;BME280;6924;52.122;9.952;2023-02-28T00:23:20;102085.13;;;0.05;85.23
13705;BME280;6924;52.122;9.952;2023-02-28T00:25:46;102080.19;;;0.00;85.55
13705;BME280;6924;52.122;9.952;2023-02-28T00:28:13;102090.66;;;-0.02;84.69
13705;BME280;6924;52.122;9.952;2023-02-28T00:30:40;102094.47;;;-0.10;85.17
13705;BME280;6924;52.122;9.952;2023-02-28T00:33:07;102094.00;;;-0.13;84.71
13705;BME280;6924;52.122;9.952;2023-02-28T00:35:33;102087.56;;;-0.21;84.78
13705;BME280;6924;52.122;9.952;2023-02-28T00:37:59;102088.19;;;-0.25;84.31
13705;BME280;6924;52.122;9.952;2023-02-28T00:40:26;102087.53;;;-0.27;84.74
13705;BME280;6924;52.122;9.952;2023-02-28T00:42:52;102088.81;;;-0.30;84.14
13705;BME280;6924;52.122;9.952;2023-02-28T00:45:19;102091.13;;;-0.33;84.73
13705;BME280;6924;52.122;9.952;2023-02-28T00:47:47;102097.72;;;-0.41;83.88
13705;BME280;6924;52.122;9.952;2023-02-28T00:50:15;102086.38;;;-0.46;84.02
13705;BME280;6924;52.122;9.952;2023-02-28T00:52:42;102086.53;;;-0.54;84.01
13705;BME280;6924;52.122;9.952;2023-02-28T00:55:09;102095.91;;;-0.55;84.23
13705;BME280;6924;52.122;9.952;2023-02-28T00:57:36;102086.72;;;-0.56;84.41
13705;BME280;6924;52.122;9.952;2023-02-28T01:00:03;102086.28;;;-0.59;83.97
13705;BME280;6924;52.122;9.952;2023-02-28T01:02:30;102086.66;;;-0.63;83.72
13705;BME280;6924;52.122;9.952;2023-02-28T01:04:58;102086.16;;;-0.73;84.18
13705;BME280;6924;52.122;9.952;2023-02-28T01:07:24;102087.66;;;-0.77;84.17
13705;BME280;6924;52.122;9.952;2023-02-28T01:09:51;102098.06;;;-0.86;84.02
13705;BME280;6924;52.122;9.952;2023-02-28T01:12:17;102089.66;;;-0.92;84.21
13705;BME280;6924;52.122;9.952;2023-02-28T01:14:44;102093.25;;;-0.98;83.98
13705;BME280;6924;52.122;9.952;2023-02-28T01:17:10;102100.72;;;-0.99;84.29
13705;BME280;6924;52.122;9.952;2023-02-28T01:19:36;102100.44;;;-1.04;84.54
13705;BME280;6924;52.122;9.952;2023-02-28T01:22:05;102091.88;;;-1.09;84.75
13705;BME280;6924;52.122;9.952;2023-02-28T01:24:32;102094.41;;;-1.14;84.97
13705;BME280;6924;52.122;9.952;2023-02-28T01:26:59;102091.56;;;-1.21;85.53
13705;BME280;6924;52.122;9.952;2023-02-28T01:29:25;102104.31;;;-1.27;85.60
13705;BME280;6924;52.122;9.952;2023-02-28T01:31:51;102091.03;;;-1.31;85.77
13705;BME280;6924;52.122;9.952;2023-02-28T01:34:18;102094.00;;;-1.33;85.48
13705;BME280;6924;52.122;9.952;2023-02-28T01:36:45;102088.44;;;-1.33;85.40
13705;BME280;6924;52.122;9.952;2023-02-28T01:39:13;102091.44;;;-1.34;85.77
13705;BME280;6924;52.122;9.952;2023-02-28T01:41:39;102089.69;;;-1.35;85.44
13705;BME280;6924;52.122;9.952;2023-02-28T01:44:53;102088.00;;;-1.36;85.54
13705;BME280;6924;52.122;9.952;2023-02-28T01:46:54;102083.59;;;-1.46;85.38
13705;BME280;6924;52.122;9.952;2023-02-28T01:49:21;102083.84;;;-1.47;85.70
13705;BME280;6924;52.122;9.952;2023-02-28T01:51:49;102076.09;;;-1.52;85.72
13705;BME280;6924;52.122;9.952;2023-02-28T01:54:22;102074.38;;;-1.53;85.80
13705;BME280;6924;52.122;9.952;2023-02-28T01:56:53;102073.69;;;-1.55;86.05
13705;BME280;6924;52.122;9.952;2023-02-28T01:59:25;102074.88;;;-1.64;86.11
13705;BME280;6924;52.122;9.952;2023-02-28T02:01:54;102073.56;;;-1.68;85.79
13705;BME280;6924;52.122;9.952;2023-02-28T02:04:23;102071.84;;;-1.69;85.79
13705;BME280;6924;52.122;9.952;2023-02-28T02:06:52;102069.69;;;-1.74;85.61
13705;BME280;6924;52.122;9.952;2023-02-28T02:09:18;102065.56;;;-1.78;85.56
13705;BME280;6924;52.122;9.952;2023-02-28T02:11:45;102062.53;;;-1.83;85.64
13705;BME280;6924;52.122;9.952;2023-02-28T02:14:28;102061.22;;;-1.87;85.92
13705;BME280;6924;52.122;9.952;2023-02-28T02:17:08;102060.47;;;-1.96;86.08
13705;BME280;6924;52.122;9.952;2023-02-28T02:19:57;102054.25;;;-1.98;86.29
13705;BME280;6924;52.122;9.952;2023-02-28T02:22:49;102052.53;;;-1.99;86.48
13705;BME280;6924;52.122;9.952;2023-02-28T02:25:27;102051.78;;;-2.08;86.71
13705;BME280;6924;52.122;9.952;2023-02-28T02:28:15;102048.31;;;-2.31;87.27
13705;BME280;6924;52.122;9.952;2023-02-28T02:31:23;102049.91;;;-2.37;87.96
13705;BME280;6924;52.122;9.952;2023-02-28T02:37:00;102048.75;;;-2.28;88.70
13705;BME280;6924;52.122;9.952;2023-02-28T02:39:32;102049.63;;;-2.27;89.10
13705;BME280;6924;52.122;9.952;2023-02-28T02:42:05;102047.91;;;-2.28;89.22
13705;BME280;6924;52.122;9.952;2023-02-28T02:44:40;102052.59;;;-2.29;89.46
13705;BME280;6924;52.122;9.952;2023-02-28T02:47:11;102047.41;;;-2.32;89.28
13705;BME280;6924;52.122;9.952;2023-02-28T02:49:42;102048.66;;;-2.34;89.45
13705;BME280;6924;52.122;9.952;2023-02-28T02:52:14;102045.03;;;-2.35;89.05
13705;BME280;6924;52.122;9.952;2023-02-28T02:54:43;102048.88;;;-2.36;89.09
13705;BME280;6924;52.122;9.952;2023-02-28T02:57:14;102052.69;;;-2.37;89.21
13705;BME280;6924;52.122;9.952;2023-02-28T02:59:42;102048.41;;;-2.39;89.16
13705;BME280;6924;52.122;9.952;2023-02-28T03:02:11;102053.09;;;-2.40;89.21
13705;BME280;6924;52.122;9.952;2023-02-28T03:04:43;102052.69;;;-2.37;88.75
13705;BME280;6924;52.122;9.952;2023-02-28T03:07:11;102055.47;;;-2.37;89.07
13705;BME280;6924;52.122;9.952;2023-02-28T03:09:37;102064.63;;;-2.36;89.67
13705;BME280;6924;52.122;9.952;2023-02-28T03:12:06;102067.22;;;-2.35;90.19
13705;BME280;6924;52.122;9.952;2023-02-28T03:14:43;102070.84;;;-2.34;90.46
13705;BME280;6924;52.122;9.952;2023-02-28T03:17:30;102061.84;;;-2.36;90.76
13705;BME280;6924;52.122;9.952;2023-02-28T03:20:05;102068.06;;;-2.34;90.82
13705;BME280;6924;52.122;9.952;2023-02-28T03:22:45;102058.63;;;-2.40;91.01
13705;BME280;6924;52.122;9.952;2023-02-28T03:25:20;102065.50;;;-2.36;91.00
13705;BME280;6924;52.122;9.952;2023-02-28T03:27:55;102059.31;;;-2.38;90.98
13705;BME280;6924;52.122;9.952;2023-02-28T03:30:29;102060.72;;;-2.42;90.98
13705;BME280;6924;52.122;9.952;2023-02-28T03:33:03;102061.19;;;-2.38;90.62
13705;BME280;6924;52.122;9.952;2023-02-28T03:35:34;102074.00;;;-2.37;90.36
13705;BME280;6924;52.122;9.952;2023-02-28T03:38:08;102077.81;;;-2.38;90.39
13705;BME280;6924;52.122;9.952;2023-02-28T03:40:41;102076.03;;;-2.46;90.42
13705;BME280;6924;52.122;9.952;2023-02-28T03:43:12;102078.41;;;-2.43;90.40
13705;BME280;6924;52.122;9.952;2023-02-28T03:45:41;102076.50;;;-2.42;90.47
13705;BME280;6924;52.122;9.952;2023-02-28T03:48:12;102077.06;;;-2.47;90.75
13705;BME280;6924;52.122;9.952;2023-02-28T03:50:41;102073.81;;;-2.51;90.65
13705;BME280;6924;52.122;9.952;2023-02-28T03:53:12;102076.31;;;-2.56;90.50
13705;BME280;6924;52.122;9.952;2023-02-28T03:55:43;102077.53;;;-2.58;90.57
13705;BME280;6924;52.122;9.952;2023-02-28T03:58:15;102080.88;;;-2.63;90.83
13705;BME280;6924;52.122;9.952;2023-02-28T04:00:49;102082.13;;;-2.65;90.50
13705;BME280;6924;52.122;9.952;2023-02-28T04:03:17;102077.84;;;-2.68;90.49
13705;BME280;6924;52.122;9.952;2023-02-28T04:05:50;102076.88;;;-2.75;90.63
13705;BME280;6924;52.122;9.952;2023-02-28T04:08:18;102077.81;;;-2.83;90.44
13705;BME280;6924;52.122;9.952;2023-02-28T04:10:49;102076.56;;;-2.95;90.61
13705;BME280;6924;52.122;9.952;2023-02-28T04:13:17;102079.13;;;-2.94;90.67
13705;BME280;6924;52.122;9.952;2023-02-28T04:15:44;102081.63;;;-2.99;91.01
13705;BME280;6924;52.122;9.952;2023-02-28T04:18:10;102082.09;;;-2.95;91.09
13705;BME280;6924;52.122;9.952;2023-02-28T04:20:36;102080.94;;;-3.01;91.71
13705;BME280;6924;52.122;9.952;2023-02-28T04:23:03;102082.69;;;-3.00;91.41
13705;BME280;6924;52.122;9.952;2023-02-28T04:25:30;102086.97;;;-2.97;91.83
13705;BME280;6924;52.122;9.952;2023-02-28T04:27:57;102079.91;;;-3.00;91.91
13705;BME280;6924;52.122;9.952;2023-02-28T04:30:23;102093.75;;;-3.00;92.01
13705;BME280;6924;52.122;9.952;2023-02-28T04:32:50;102089.41;;;-3.02;92.02
13705;BME280;6924;52.122;9.952;2023-02-28T04:35:16;102095.44;;;-2.99;92.59
13705;BME280;6924;52.122;9.952;2023-02-28T04:37:43;102100.31;;;-3.01;92.65
13705;BME280;6924;52.122;9.952;2023-02-28T04:40:10;102094.97;;;-3.02;92.87
13705;BME280;6924;52.122;9.952;2023-02-28T04:42:38;102096.13;;;-2.97;93.20
13705;BME280;6924;52.122;9.952;2023-02-28T04:45:05;102099.00;;;-2.90;93.57
13705;BME280;6924;52.122;9.952;2023-02-28T04:47:32;102099.50;;;-2.86;93.99
13705;BME280;6924;52.122;9.952;2023-02-28T04:49:59;102097.47;;;-2.93;94.44
13705;BME280;6924;52.122;9.952;2023-02-28T04:52:27;102094.50;;;-2.91;94.89
13705;BME280;6924;52.122;9.952;2023-02-28T04:54:53;102103.41;;;-2.81;95.13
13705;BME280;6924;52.122;9.952;2023-02-28T04:57:20;102091.66;;;-2.83;95.40
13705;BME280;6924;52.122;9.952;2023-02-28T04:59:47;102102.16;;;-2.78;95.78
13705;BME280;6924;52.122;9.952;2023-02-28T05:02:14;102101.59;;;-2.74;96.26
13705;BME280;6924;52.122;9.952;2023-02-28T05:04:40;102097.91;;;-2.66;96.58
13705;BME280;6924;52.122;9.952;2023-02-28T05:07:07;102096.63;;;-2.78;96.81
13705;BME280;6924;52.122;9.952;2023-02-28T05:09:33;102097.03;;;-2.66;97.06
13705;BME280;6924;52.122;9.952;2023-02-28T05:11:59;102087.66;;;-2.65;97.27
13705;BME280;6924;52.122;9.952;2023-02-28T05:14:26;102091.38;;;-2.58;96.83
13705;BME280;6924;52.122;9.952;2023-02-28T05:16:53;102096.16;;;-2.52;96.61
13705;BME280;6924;52.122;9.952;2023-02-28T05:19:20;102087.00;;;-2.53;96.26
13705;BME280;6924;52.122;9.952;2023-02-28T05:21:51;102086.31;;;-2.70;96.27
13705;BME280;6924;52.122;9.952;2023-02-28T05:24:18;102082.69;;;-3.00;96.80
13705;BME280;6924;52.122;9.952;2023-02-28T05:26:49;102081.69;;;-3.07;97.65
13705;BME280;6924;52.122;9.952;2023-02-28T05:29:16;102073.50;;;-2.85;97.37
13705;BME280;6924;52.122;9.952;2023-02-28T05:31:42;102077.16;;;-2.70;96.33
13705;BME280;6924;52.122;9.952;2023-02-28T05:34:10;102079.44;;;-2.59;95.62
13705;BME280;6924;52.122;9.952;2023-02-28T05:36:38;102076.97;;;-2.54;95.18
13705;BME280;6924;52.122;9.952;2023-02-28T05:39:05;102073.81;;;-2.51;94.81
13705;BME280;6924;52.122;9.952;2023-02-28T05:41:32;102081.47;;;-2.53;94.74
13705;BME280;6924;52.122;9.952;2023-02-28T05:43:59;102084.81;;;-2.57;94.84
13705;BME280;6924;52.122;9.952;2023-02-28T05:46:26;102082.41;;;-2.60;94.01
13705;BME280;6924;52.122;9.952;2023-02-28T05:48:52;102082.81;;;-2.63;94.05
13705;BME280;6924;52.122;9.952;2023-02-28T05:51:22;102088.63;;;-2.73;94.10
13705;BME280;6924;52.122;9.952;2023-02-28T05:53:48;102085.88;;;-2.73;93.55
13705;BME280;6924;52.122;9.952;2023-02-28T05:56:15;102090.91;;;-2.77;93.20
13705;BME280;6924;52.122;9.952;2023-02-28T05:58:41;102080.41;;;-2.81;93.09
13705;BME280;6924;52.122;9.952;2023-02-28T06:01:31;102089.94;;;-2.84;93.15
13705;BME280;6924;52.122;9.952;2023-02-28T06:03:58;102087.84;;;-2.82;92.81
13705;BME280;6924;52.122;9.952;2023-02-28T06:06:26;102084.78;;;-2.87;92.64
13705;BME280;6924;52.122;9.952;2023-02-28T06:08:52;102099.00;;;-2.90;92.32
13705;BME280;6924;52.122;9.952;2023-02-28T06:11:19;102090.53;;;-2.88;92.45
13705;BME280;6924;52.122;9.952;2023-02-28T06:13:46;102100.44;;;-2.94;92.37
13705;BME280;6924;52.122;9.952;2023-02-28T06:16:12;102095.28;;;-2.97;92.60
13705;BME280;6924;52.122;9.952;2023-02-28T06:18:39;102093.75;;;-3.00;92.60
13705;BME280;6924;52.122;9.952;2023-02-28T06:21:05;102103.47;;;-3.04;92.46
13705;BME280;6924;52.122;9.952;2023-02-28T06:23:35;102110.03;;;-3.05;92.53
13705;BME280;6924;52.122;9.952;2023-02-28T06:26:01;102117.31;;;-3.04;92.71
13705;BME280;6924;52.122;9.952;2023-02-28T06:28:28;102117.31;;;-3.04;92.75
13705;BME280;6924;52.122;9.952;2023-02-28T06:30:54;102119.41;;;-3.06;93.45
13705;BME280;6924;52.122;9.952;2023-02-28T06:33:20;102123.22;;;-3.07;93.58
13705;BME280;6924;52.122;9.952;2023-02-28T06:35:47;102119.97;;;-3.10;93.79
13705;BME280;6924;52.122;9.952;2023-02-28T06:38:15;102136.03;;;-3.06;93.59
13705;BME280;6924;52.122;9.952;2023-02-28T06:40:45;102134.94;;;-3.05;94.03
13705;BME280;6924;52.122;9.952;2023-02-28T06:43:18;102132.41;;;-3.29;94.47
13705;BME280;6924;52.122;9.952;2023-02-28T06:45:45;102132.50;;;-3.23;94.94
13705;BME280;6924;52.122;9.952;2023-02-28T06:48:11;102138.00;;;-3.15;94.88
13705;BME280;6924;52.122;9.952;2023-02-28T06:50:37;102137.72;;;-3.05;95.02
13705;BME280;6924;52.122;9.952;2023-02-28T06:53:04;102139.63;;;-3.05;94.83
13705;BME280;6924;52.122;9.952;2023-02-28T06:55:31;102139.56;;;-2.97;95.63
13705;BME280;6924;52.122;9.952;2023-02-28T06:57:58;102148.66;;;-2.88;95.69
13705;BME280;6924;52.122;9.952;2023-02-28T07:00:25;102143.03;;;-2.80;96.67
13705;BME280;6924;52.122;9.952;2023-02-28T07:02:51;102149.25;;;-2.78;96.75
13705;BME280;6924;52.122;9.952;2023-02-28T07:05:20;102147.47;;;-2.71;96.83
13705;BME280;6924;52.122;9.952;2023-02-28T07:07:46;102144.59;;;-2.63;96.93
13705;BME280;6924;52.122;9.952;2023-02-28T07:10:13;102149.66;;;-2.52;97.57
13705;BME280;6924;52.122;9.952;2023-02-28T07:12:42;102147.22;;;-2.46;97.71
13705;BME280;6924;52.122;9.952;2023-02-28T07:15:10;102151.59;;;-2.37;98.03
13705;BME280;6924;52.122;9.952;2023-02-28T07:17:37;102154.19;;;-2.51;97.75
13705;BME280;6924;52.122;9.952;2023-02-28T07:20:04;102157.22;;;-2.45;98.42
13705;BME280;6924;52.122;9.952;2023-02-28T07:22:30;102152.47;;;-2.22;98.78
13705;BME280;6924;52.122;9.952;2023-02-28T07:24:57;102161.25;;;-2.03;98.64
13705;BME280;6924;52.122;9.952;2023-02-28T07:27:23;102158.28;;;-1.87;98.57
13705;BME280;6924;52.122;9.952;2023-02-28T07:29:50;102157.31;;;-1.79;98.75
13705;BME280;6924;52.122;9.952;2023-02-28T07:32:19;102163.16;;;-1.89;98.05
13705;BME280;6924;52.122;9.952;2023-02-28T07:34:45;102159.41;;;-1.81;97.12
13705;BME280;6924;52.122;9.952;2023-02-28T07:37:12;102154.25;;;-1.70;96.20
13705;BME280;6924;52.122;9.952;2023-02-28T07:39:38;102153.91;;;-1.60;95.68
13705;BME280;6924;52.122;9.952;2023-02-28T07:42:07;102158.47;;;-1.52;95.45
13705;BME280;6924;52.122;9.952;2023-02-28T07:44:35;102154.53;;;-1.43;95.03
13705;BME280;6924;52.122;9.952;2023-02-28T07:47:05;102162.66;;;-1.41;95.31
13705;BME280;6924;52.122;9.952;2023-02-28T07:49:33;102158.72;;;-1.32;95.30
13705;BME280;6924;52.122;9.952;2023-02-28T07:52:00;102160.75;;;-1.19;94.49
13705;BME280;6924;52.122;9.952;2023-02-28T07:54:26;102164.47;;;-1.12;94.03
13705;BME280;6924;52.122;9.952;2023-02-28T07:56:52;102159.66;;;-1.03;94.54
13705;BME280;6924;52.122;9.952;2023-02-28T07:59:19;102163.34;;;-0.96;94.69
13705;BME280;6924;52.122;9.952;2023-02-28T08:01:45;102152.09;;;-0.88;94.33
13705;BME280;6924;52.122;9.952;2023-02-28T08:04:11;102157.06;;;-0.84;94.30
13705;BME280;6924;52.122;9.952;2023-02-28T08:06:39;102153.88;;;-0.80;93.48
13705;BME280;6924;52.122;9.952;2023-02-28T08:09:06;102160.50;;;-0.81;93.27
13705;BME280;6924;52.122;9.952;2023-02-28T08:11:32;102160.16;;;-0.72;92.86
13705;BME280;6924;52.122;9.952;2023-02-28T08:13:59;102158.34;;;-0.79;92.14
13705;BME280;6924;52.122;9.952;2023-02-28T08:16:25;102154.41;;;-0.70;92.02
13705;BME280;6924;52.122;9.952;2023-02-28T08:18:52;102153.63;;;-0.57;91.82
13705;BME280;6924;52.122;9.952;2023-02-28T08:21:19;102146.25;;;-0.44;91.20
13705;BME280;6924;52.122;9.952;2023-02-28T08:23:48;102149.31;;;-0.32;90.97
13705;BME280;6924;52.122;9.952;2023-02-28T08:26:15;102143.56;;;-0.30;90.32
13705;BME280;6924;52.122;9.952;2023-02-28T08:28:41;102147.88;;;-0.56;85.32
13705;BME280;6924;52.122;9.952;2023-02-28T08:31:08;102155.28;;;-0.63;85.50
13705;BME280;6924;52.122;9.952;2023-02-28T08:33:35;102152.94;;;-0.31;85.84
13705;BME280;6924;52.122;9.952;2023-02-28T08:36:02;102154.56;;;-0.15;85.83
13705;BME280;6924;52.122;9.952;2023-02-28T08:38:29;102160.47;;;0.10;85.91
13705;BME280;6924;52.122;9.952;2023-02-28T08:41:01;102157.78;;;0.30;85.56
13705;BME280;6924;52.122;9.952;2023-02-28T08:43:28;102157.31;;;0.26;82.55
13705;BME280;6924;52.122;9.952;2023-02-28T08:45:55;102153.72;;;0.32;81.36
13705;BME280;6924;52.122;9.952;2023-02-28T08:48:22;102154.16;;;0.29;80.80
13705;BME280;6924;52.122;9.952;2023-02-28T08:50:55;102162.09;;;0.39;80.27
13705;BME280;6924;52.122;9.952;2023-02-28T08:53:21;102160.25;;;0.66;81.44
13705;BME280;6924;52.122;9.952;2023-02-28T08:55:55;102159.69;;;0.84;81.77
13705;BME280;6924;52.122;9.952;2023-02-28T08:58:23;102159.47;;;1.06;81.13
13705;BME280;6924;52.122;9.952;2023-02-28T09:00:50;102157.78;;;1.24;80.34
13705;BME280;6924;52.122;9.952;2023-02-28T09:03:16;102150.91;;;1.40;79.08
13705;BME280;6924;52.122;9.952;2023-02-28T09:05:51;102160.34;;;1.59;78.70
13705;BME280;6924;52.122;9.952;2023-02-28T09:08:18;102165.47;;;1.76;77.91
13705;BME280;6924;52.122;9.952;2023-02-28T09:10:44;102158.38;;;1.80;76.39
13705;BME280;6924;52.122;9.952;2023-02-28T09:13:11;102160.13;;;1.81;75.04
13705;BME280;6924;52.122;9.952;2023-02-28T09:15:39;102161.38;;;1.85;74.28
13705;BME280;6924;52.122;9.952;2023-02-28T09:18:05;102161.59;;;1.90;74.08
13705;BME280;6924;52.122;9.952;2023-02-28T09:20:31;102168.00;;;1.97;74.08
13705;BME280;6924;52.122;9.952;2023-02-28T09:22:58;102160.06;;;2.01;74.11
13705;BME280;6924;52.122;9.952;2023-02-28T09:25:24;102162.38;;;2.17;73.98
13705;BME280;6924;52.122;9.952;2023-02-28T09:27:50;102162.78;;;2.27;72.56
13705;BME280;6924;52.122;9.952;2023-02-28T09:30:17;102158.81;;;2.42;72.49
13705;BME280;6924;52.122;9.952;2023-02-28T09:32:45;102163.47;;;2.61;72.30
13705;BME280;6924;52.122;9.952;2023-02-28T09:35:17;102160.81;;;2.73;72.50
13705;BME280;6924;52.122;9.952;2023-02-28T09:37:44;102160.56;;;2.81;70.23
13705;BME280;6924;52.122;9.952;2023-02-28T09:40:12;102167.16;;;2.94;70.36
13705;BME280;6924;52.122;9.952;2023-02-28T09:42:40;102167.06;;;3.07;69.44
13705;BME280;6924;52.122;9.952;2023-02-28T09:45:15;102167.34;;;3.24;69.94
13705;BME280;6924;52.122;9.952;2023-02-28T09:47:48;102163.88;;;3.28;69.24
13705;BME280;6924;52.122;9.952;2023-02-28T09:50:23;102160.75;;;3.18;67.83
13705;BME280;6924;52.122;9.952;2023-02-28T09:52:56;102159.31;;;3.34;66.87
13705;BME280;6924;52.122;9.952;2023-02-28T09:55:28;102160.31;;;3.46;68.73
13705;BME280;6924;52.122;9.952;2023-02-28T09:57:57;102161.09;;;3.54;67.47
13705;BME280;6924;52.122;9.952;2023-02-28T10:00:30;102167.22;;;3.69;66.67
13705;BME280;6924;52.122;9.952;2023-02-28T10:03:22;102173.59;;;3.76;65.56
13705;BME280;6924;52.122;9.952;2023-02-28T10:05:54;102165.13;;;3.83;65.80
13705;BME280;6924;52.122;9.952;2023-02-28T10:08:25;102160.00;;;3.98;65.75
13705;BME280;6924;52.122;9.952;2023-02-28T10:10:55;102156.91;;;4.06;65.92
13705;BME280;6924;52.122;9.952;2023-02-28T10:13:25;102153.41;;;3.92;64.88
13705;BME280;6924;52.122;9.952;2023-02-28T10:15:56;102153.94;;;4.01;65.74
13705;BME280;6924;52.122;9.952;2023-02-28T10:18:28;102160.72;;;4.12;64.87
13705;BME280;6924;52.122;9.952;2023-02-28T10:20:56;102156.44;;;4.09;63.75
13705;BME280;6924;52.122;9.952;2023-02-28T10:23:26;102150.84;;;4.09;66.38
13705;BME280;6924;52.122;9.952;2023-02-28T10:25:57;102150.22;;;4.07;65.04
13705;BME280;6924;52.122;9.952;2023-02-28T10:28:25;102159.31;;;4.03;63.87
13705;BME280;6924;52.122;9.952;2023-02-28T10:30:54;102149.06;;;4.15;65.75
13705;BME280;6924;52.122;9.952;2023-02-28T10:33:24;102148.66;;;4.11;62.50
13705;BME280;6924;52.122;9.952;2023-02-28T10:35:52;102157.91;;;3.93;61.46
13705;BME280;6924;52.122;9.952;2023-02-28T10:38:22;102147.19;;;4.09;64.06
13705;BME280;6924;52.122;9.952;2023-02-28T10:40:49;102151.38;;;4.18;62.50
13705;BME280;6924;52.122;9.952;2023-02-28T10:43:21;102143.91;;;4.49;62.71
13705;BME280;6924;52.122;9.952;2023-02-28T10:45:55;102146.06;;;4.65;60.60
13705;BME280;6924;52.122;9.952;2023-02-28T10:48:30;102139.56;;;4.83;57.88
13705;BME280;6924;52.122;9.952;2023-02-28T10:51:00;102141.78;;;5.05;57.19
13705;BME280;6924;52.122;9.952;2023-02-28T10:53:45;102141.88;;;4.86;53.14
13705;BME280;6924;52.122;9.952;2023-02-28T10:56:16;102135.13;;;5.17;56.52
13705;BME280;6924;52.122;9.952;2023-02-28T10:58:52;102140.00;;;5.22;53.26
13705;BME280;6924;52.122;9.952;2023-02-28T11:01:21;102125.03;;;5.40;54.13
13705;BME280;6924;52.122;9.952;2023-02-28T11:03:48;102139.22;;;5.57;51.73
13705;BME280;6924;52.122;9.952;2023-02-28T11:06:19;102138.47;;;5.62;54.71
13705;BME280;6924;52.122;9.952;2023-02-28T11:08:48;102127.63;;;5.65;51.35
13705;BME280;6924;52.122;9.952;2023-02-28T11:11:15;102127.03;;;5.63;50.42
13705;BME280;6924;52.122;9.952;2023-02-28T11:13:44;102123.47;;;5.79;52.51
13705;BME280;6924;52.122;9.952;2023-02-28T11:16:13;102125.56;;;5.72;50.96
13705;BME280;6924;52.122;9.952;2023-02-28T11:18:42;102122.63;;;5.67;53.73
13705;BME280;6924;52.122;9.952;2023-02-28T11:21:17;102111.16;;;5.80;51.65
13705;BME280;6924;52.122;9.952;2023-02-28T11:23:45;102111.75;;;5.83;51.63
13705;BME280;6924;52.122;9.952;2023-02-28T11:26:13;102111.88;;;5.88;49.59
13705;BME280;6924;52.122;9.952;2023-02-28T11:28:41;102119.09;;;5.60;51.02
13705;BME280;6924;52.122;9.952;2023-02-28T11:31:17;102112.72;;;5.53;50.98
13705;BME280;6924;52.122;9.952;2023-02-28T11:33:46;102108.47;;;5.50;49.99
13705;BME280;6924;52.122;9.952;2023-02-28T11:36:18;102102.47;;;5.47;49.99
13705;BME280;6924;52.122;9.952;2023-02-28T11:38:45;102100.03;;;5.38;49.81
13705;BME280;6924;52.122;9.952;2023-02-28T11:41:35;102095.50;;;5.14;50.28
13705;BME280;6924;52.122;9.952;2023-02-28T11:44:15;102094.78;;;5.30;51.96
13705;BME280;6924;52.122;9.952;2023-02-28T11:46:48;102098.09;;;5.39;47.29
13705;BME280;6924;52.122;9.952;2023-02-28T11:49:27;102091.47;;;5.22;48.38
13705;BME280;6924;52.122;9.952;2023-02-28T11:52:01;102094.19;;;4.86;46.59
13705;BME280;6924;52.122;9.952;2023-02-28T11:57:27;102086.69;;;4.99;48.34
13705;BME280;6924;52.122;9.952;2023-02-28T12:00:03;102083.50;;;5.07;51.19
13705;BME280;6924;52.122;9.952;2023-02-28T12:02:48;102087.81;;;5.21;49.52
13705;BME280;6924;52.122;9.952;2023-02-28T12:05:24;102084.91;;;5.39;48.87
13705;BME280;6924;52.122;9.952;2023-02-28T12:08:05;102092.59;;;5.32;48.05
13705;BME280;6924;52.122;9.952;2023-02-28T12:10:38;102082.81;;;5.23;47.01
13705;BME280;6924;52.122;9.952;2023-02-28T12:13:16;102073.28;;;5.12;48.54
13705;BME280;6924;52.122;9.952;2023-02-28T12:16:04;102075.59;;;5.04;44.67
13705;BME280;6924;52.122;9.952;2023-02-28T12:18:56;102065.09;;;4.87;45.45
13705;BME280;6924;52.122;9.952;2023-02-28T12:21:38;102066.25;;;4.68;48.62
13705;BME280;6924;52.122;9.952;2023-02-28T12:24:42;102067.84;;;4.75;47.34
13705;BME280;6924;52.122;9.952;2023-02-28T12:27:16;102078.91;;;4.59;47.17
13705;BME280;6924;52.122;9.952;2023-02-28T12:29:47;102064.59;;;4.48;47.04
13705;BME280;6924;52.122;9.952;2023-02-28T12:32:19;102070.72;;;4.57;48.41
13705;BME280;6924;52.122;9.952;2023-02-28T12:34:49;102067.69;;;4.59;48.90
13705;BME280;6924;52.122;9.952;2023-02-28T12:37:20;102065.75;;;4.71;49.28
13705;BME280;6924;52.122;9.952;2023-02-28T12:39:52;102063.59;;;4.85;48.88
13705;BME280;6924;52.122;9.952;2023-02-28T12:42:26;102065.53;;;4.72;46.83
13705;BME280;6924;52.122;9.952;2023-02-28T12:44:58;102064.28;;;4.68;47.30
13705;BME280;6924;52.122;9.952;2023-02-28T12:47:25;102059.63;;;4.62;45.18
13705;BME280;6924;52.122;9.952;2023-02-28T12:49:54;102050.56;;;4.48;48.24
13705;BME280;6924;52.122;9.952;2023-02-28T12:52:27;102055.78;;;4.45;48.36
13705;BME280;6924;52.122;9.952;2023-02-28T12:55:00;102056.69;;;4.27;48.34
13705;BME280;6924;52.122;9.952;2023-02-28T12:57:34;102054.59;;;4.22;47.18
13705;BME280;6924;52.122;9.952;2023-02-28T13:00:08;102056.13;;;4.06;47.21
13705;BME280;6924;52.122;9.952;2023-02-28T13:03:00;102051.56;;;4.24;47.07
13705;BME280;6924;52.122;9.952;2023-02-28T13:05:56;102042.78;;;4.20;48.33
13705;BME280;6924;52.122;9.952;2023-02-28T13:08:47;102045.75;;;4.07;47.60
13705;BME280;6924;52.122;9.952;2023-02-28T13:11:28;102042.38;;;4.17;46.63
13705;BME280;6924;52.122;9.952;2023-02-28T13:14:00;102030.34;;;4.16;46.64
13705;BME280;6924;52.122;9.952;2023-02-28T13:16:28;102036.09;;;4.21;47.19
13705;BME280;6924;52.122;9.952;2023-02-28T13:19:09;102038.59;;;4.11;48.76
13705;BME280;6924;52.122;9.952;2023-02-28T13:21:42;102035.28;;;4.02;48.65
13705;BME280;6924;52.122;9.952;2023-02-28T13:24:10;102024.81;;;4.09;47.99
13705;BME280;6924;52.122;9.952;2023-02-28T13:27:18;102022.03;;;4.09;48.52